This is the latest recevied weather packets stored in our database for station/object IZ2MHJ-3. If no packets are shown the sender has not sent any weather packets the latest 10 day(s).
| Time | Temp. | Humidity | Pressure | Rain* | Wind** | Luminosity | Snow |
|---|---|---|---|---|---|---|---|
| 1787938848 | 23.89° C | 77% | 1015.3 hPa | - | - | - | - |
| 1787937648 | 23.89° C | 76% | 1016.6 hPa | - | - | - | - |
| 1787936448 | 24.44° C | 75% | 1015.8 hPa | - | - | - | - |
| 1787935247 | 25.56° C | 84% | 1015.9 hPa | - | - | - | - |
| 1787934047 | 25.56° C | 78% | 1014.7 hPa | - | - | - | - |
| 1787932847 | 27.22° C | 74% | 1015.7 hPa | - | - | - | - |
| 1787931646 | 27.78° C | 72% | 1015 hPa | - | - | - | - |
| 1787930446 | 28.33° C | 71% | 1014 hPa | - | - | - | - |
| 1787929246 | 30° C | 65% | 1014.2 hPa | - | - | - | - |
| 1787928045 | 31.11° C | 68% | 1014.4 hPa | - | - | - | - |
| 1787926845 | 31.11° C | 63% | 1014.6 hPa | - | - | - | - |
| 1787925645 | 30.56° C | 61% | 1014.7 hPa | - | - | - | - |
| 1787924444 | 31.67° C | 57% | 1014.8 hPa | - | - | - | - |
| 1787923244 | 32.78° C | 53% | 1014.6 hPa | - | - | - | - |
| 1787922044 | 33.33° C | 50% | 1014.7 hPa | - | - | - | - |
| 1787920844 | 36.11° C | 47% | 1014.8 hPa | - | - | - | - |
| 1787919643 | 36.67° C | 47% | 1015 hPa | - | - | - | - |
| 1787918443 | 33.33° C | 53% | 1015.5 hPa | - | - | - | - |
| 1787917243 | 32.22° C | 54% | 1015.5 hPa | - | - | - | - |
| 1787916042 | 30.56° C | 59% | 1015.7 hPa | - | - | - | - |
| 1787914842 | 30.56° C | 61% | 1015.9 hPa | - | - | - | - |
| 1787913642 | 28.89° C | 70% | 1016.7 hPa | - | - | - | - |
| 1787912441 | 29.44° C | 67% | 1016.8 hPa | - | - | - | - |
| 1787911241 | 30.56° C | 64% | 1016.8 hPa | - | - | - | - |
| 1787910041 | 29.44° C | 67% | 1016.9 hPa | - | - | - | - |
* Rain since midnight (hover to see other rain measurements)
** Current wind speed in m/s (hover to see current wind gust speed)